Weather at Rust Field

Public forecast

Using degrees Fahrenheit for public forecast. Weather courtesy of forecast.io.

Closest aviation weather report (METAR) to Rust Field

Closest report is Boerne Stage Field, 14.9 nm (27.5 km) SSE. Retrieved 2020/09/27 03:35 UTC (0 seconds ago):

K5C1 270335Z AUTO 18005KT 10SM CLR 23/17 A2988 RMK AO1

Closest aviation forecast (TAF) to Rust Field

Closest forecast is San Antonio International Airport, 30.4 nm (56.4 km) SSE. Retrieved 2020-09-27 00:33 UTC (3 hours ago):

TAF KSAT 262330Z 2700/2806 15012KT P6SM SKC FM270800 16008KT P6SM BKN015 FM271100 17008KT P6SM OVC008 FM271600 17010KT P6SM OVC012 FM271800 16014KT P6SM SCT025